Aérodrome :
LOGIN :

S'inscrire | Disclaimer

   EN    FR    IT 

 










Légende :    VFR   VFR Marginal   IFR   IFR Intensif   IFR Très Intensif
Visi : 
Plafond : 
>= 8 km
>= 3000ft
5 à 8 km
1000 à 3000 ft
1500m à 5 km
500 à 1000 ft
800 à 1500m
200 à 500 ft
< 800m
< 200 ft
Symboles :   Orages  Brouillard  Fortes neiges  Fortes précipitations  Vent > 20 kt
SIGMETs :   Divers  Orages  Givrage  Turbulence  Onde Orograph.  Cendres Volcan.






- Altitude de l'aérodrome : 220 ft
- Code IATA : CWL


EGFF - Cardiff Rhoose

DERNIER METAR :
  • 240220Z AUTO 19006KT 9999 OVC024 11/10 Q1019

METARs EXPIRÉS :
  • 240150Z AUTO 19008KT 9999 SCT024 OVC029 11/10 Q1020
  • 240120Z AUTO 20007KT 9999 BKN021 OVC035 11/10 Q1020
  • 240050Z AUTO 20008KT 170V230 9999 BKN020 OVC035 11/10 Q1021
  • 240020Z AUTO 21007KT 9999 OVC023 11/10 Q1021

TAF TAF EGFF
Valide du 24 à 00h jusqu'au 25 à 00h UTC


232302Z 2400/2424 23010KT 9999 FEW013 BKN023
BECMG 2400/2403 17008KT
TEMPO 2400/2424 8000 -DZ BKN012
PROB30
TEMPO 2400/2409 4000 DZ BKN008
PROB40 2421/2424 3000 RADZ BKN006
ATIS : +44 1446 729 319



MET'MAP, la Météo Aéronautique d'un coup d'oeil ! - Copyright ORBIFLY Décembre 2007 - Disclaimer

ORBIFLY MET'MAP TEAM :

Programmation & Développement : Alexandra Zaïnal
Sur une idée originale de : Baudouin d'Aumeries
Assistance à la programmation : Marc-Olivier Méhu
Soutien technique & logistique : Manuel Goepfert

Contact : metmap@orbifly.com




SOURCES & CREDITS :

   NOAA